« 定点 富山空港他 2024/2/24 sat | トップページ | ### RJNT log 202402 ### »

2024/02/27

定点 富山空港他 2024/2/27 tue

今朝は、冬に戻って、関東では強風が吹き荒れている模様。

RJNT 270100Z 12003KT 080V160 9999 FEW005 SCT015 BKN030 02/01 Q1025

まずは難破船

20240227_0iwase_00jintsu

岩瀬浜に寄ると、富山市消防艇「神通」さんが、お戻りの模様

20240227_0iwase_01hl04

沖合に巡視船 測量船HL04「天洋」

20240227_0iwase_02dongyu

DONG YU は、陸上で作業が続いています。

20240227_0iwase_03dongyu

波が高くて、船を乗り越えています。

20240227_0iwase_04taikomaru

監視船は、漁港に入って待機中。昔、海王丸が座礁した堤防は、波が越えています。

さて、河原に転戦

RJNT 270300Z 36014KT 9999 VCSH FEW010 SCT040 BKN050 06/01 Q1024

20240227_rjnt_05ja87an

関東地方強風で、羽田が荒れているようです。羽田便が遅れているので千歳便が先にアプローチ

20240227_rjnt_06ja87an
20240227_rjnt_07ja87an

ANA1182 RJCC-RJNT JA87AN B737-8AL

RJNT 270329Z 06011KT 020V090 9999 -SHRA FEW010 SCT025 BKN030 04/00 Q1025 RMK 1CU010 3CU025 5CU030 A3027

20240227_rjnt_08ja87an

次は羽田便到着とデッキに行くと、雪雲がかかってあられの嵐、んちゃ。

RJNT 270336Z 07011KT 040V110 9999 -SHRAGS FEW010 SCT025 BKN030 03/01 Q1024 RMK 1CU010 3CU025 5CU030 A3026 SNOW PELLETS

20240227_rjnt_09ja85an

羽田便は、RNP02 雪雲がかかって視程が落ちました。

20240227_rjnt_10ja85an
20240227_rjnt_11ja85an
20240227_rjnt_12ja85an
20240227_rjnt_13ja85an
20240227_rjnt_14ja85an

雪がペレットなので、豪快に舞い上がります。

20240227_rjnt_15ja85an
20240227_rjnt_16ja85an

ANA315 RJTT-RJNT JA85AN B737-881

RJNT 270400Z 07004KT 010V100 6000 -SHRASN FEW010 SCT025 BKN035 03/01 Q1025

20240227_rjnt_17ja85an

久しぶりに2機並び

20240227_rjnt_18ja87an
20240227_rjnt_19ja85an

お先にー

20240227_rjnt_20ja87an
20240227_rjnt_21ja87an

ANA1181 RJNT-RJCC JA87AN B737-8AL

20240227_rjnt_22ja85an
20240227_rjnt_23ja85an
20240227_rjnt_24ja85an

ANA316 RJNT-RJTT JA85AN B737-881

RJNT 270500Z 01012KT 9999 -SHRA FEW010 SCT025 BKN050 06/03 Q1025

20240227_rjnt_25ja6512

JA6512↑ AS350B3 AKF 少しの晴れ間に、お仕事

20240227_rjnt_26b5261

上海さんのサークリング。後ろに雪雲が迫って、なかなか視認できません。Pもシーリングを気にしつつ。

20240227_rjnt_27b5261
20240227_rjnt_28b5261

ほんと、空港の周りだけ開いています。

20240227_rjnt_29b5261
20240227_rjnt_30b5261
20240227_rjnt_31b5261

CSH825 ZSPD-RJNT B-5261 B737-7D6

滑走路の半分で行足が止まる、ナイスランディング。しかし女史は、不親切やな。

RJNT 270531Z 36012G23KT 9999 -TSRA FEW010 SCT020 FEW025CB BKN030 06/M00 Q1025 RMK 1CU010 3CU020 1CB025 5CU030 A3027 FBL TS 10KM N MOV S

20240227_rjnt_32b5261

ここで雪雲が被って、雪模様。しかし雪雲が小さいので、降ってもほんのしばらくだけ。

これで河原は離脱

RJNT 270600Z 35010KT 320V020 9999 -SHRA FEW008 SCT020 BKN030 03/01 Q1025

20240227_ziwase_33dongyu

帰りに難破船に寄ってみたら、凄い波。さんざん煽られています。

 

|

« 定点 富山空港他 2024/2/24 sat | トップページ | ### RJNT log 202402 ### »

うみ」カテゴリの記事

富山空港」カテゴリの記事

海上保安庁」カテゴリの記事

コメント

コメントを書く



(ウェブ上には掲載しません)


コメントは記事投稿者が公開するまで表示されません。



« 定点 富山空港他 2024/2/24 sat | トップページ | ### RJNT log 202402 ### »